sensor_id;sensor_type;location;lat;lon;timestamp;pressure;altitude;pressure_sealevel;temperature;humidity
15971;BME280;59785;52.582;13.892;2022-12-15T00:01:19;99666.59;;;-10.47;98.84
15971;BME280;59785;52.582;13.892;2022-12-15T00:04:04;99660.53;;;-10.46;98.46
15971;BME280;59785;52.582;13.892;2022-12-15T00:06:49;99663.09;;;-10.46;97.75
15971;BME280;59785;52.582;13.892;2022-12-15T00:09:34;99664.91;;;-10.48;97.09
15971;BME280;59785;52.582;13.892;2022-12-15T00:12:18;99672.78;;;-10.53;97.04
15971;BME280;59785;52.582;13.892;2022-12-15T00:15:03;99663.38;;;-10.55;96.88
15971;BME280;59785;52.582;13.892;2022-12-15T00:17:48;99671.19;;;-10.57;96.31
15971;BME280;59785;52.582;13.892;2022-12-15T00:20:33;99669.41;;;-10.55;96.18
15971;BME280;59785;52.582;13.892;2022-12-15T00:23:18;99668.75;;;-10.61;96.36
15971;BME280;59785;52.582;13.892;2022-12-15T00:26:02;99668.81;;;-10.63;95.95
15971;BME280;59785;52.582;13.892;2022-12-15T00:28:47;99672.38;;;-10.67;96.27
15971;BME280;59785;52.582;13.892;2022-12-15T00:31:32;99674.94;;;-10.65;96.56
15971;BME280;59785;52.582;13.892;2022-12-15T00:34:17;99669.63;;;-10.62;96.78
15971;BME280;59785;52.582;13.892;2022-12-15T00:37:02;99673.97;;;-10.63;96.49
15971;BME280;59785;52.582;13.892;2022-12-15T00:39:46;99682.31;;;-10.53;96.59
15971;BME280;59785;52.582;13.892;2022-12-15T00:42:27;99689.09;;;-10.49;95.45
15971;BME280;59785;52.582;13.892;2022-12-15T00:44:54;99688.41;;;-10.54;94.87
15971;BME280;59785;52.582;13.892;2022-12-15T00:47:20;99688.56;;;-10.60;94.54
15971;BME280;59785;52.582;13.892;2022-12-15T00:49:47;99699.06;;;-10.65;94.20
15971;BME280;59785;52.582;13.892;2022-12-15T00:52:31;99705.06;;;-10.64;94.25
15971;BME280;59785;52.582;13.892;2022-12-15T00:55:16;99696.19;;;-10.56;93.51
15971;BME280;59785;52.582;13.892;2022-12-15T00:58:01;99693.94;;;-10.66;93.45
15971;BME280;59785;52.582;13.892;2022-12-15T01:00:46;99695.88;;;-10.73;93.62
15971;BME280;59785;52.582;13.892;2022-12-15T01:03:30;99704.63;;;-10.77;93.70
15971;BME280;59785;52.582;13.892;2022-12-15T01:06:17;99697.38;;;-10.66;93.50
15971;BME280;59785;52.582;13.892;2022-12-15T01:09:03;99702.88;;;-10.77;93.55
15971;BME280;59785;52.582;13.892;2022-12-15T01:11:48;99684.94;;;-10.83;93.63
15971;BME280;59785;52.582;13.892;2022-12-15T01:14:33;99687.56;;;-10.84;93.67
15971;BME280;59785;52.582;13.892;2022-12-15T01:17:18;99692.78;;;-10.86;93.65
15971;BME280;59785;52.582;13.892;2022-12-15T01:20:03;99692.78;;;-10.86;93.73
15971;BME280;59785;52.582;13.892;2022-12-15T01:22:48;99695.59;;;-10.94;93.43
15971;BME280;59785;52.582;13.892;2022-12-15T01:25:16;99702.53;;;-10.96;93.82
15971;BME280;59785;52.582;13.892;2022-12-15T01:27:43;99696.50;;;-10.95;93.57
15971;BME280;59785;52.582;13.892;2022-12-15T01:30:12;99700.72;;;-10.92;93.60
15971;BME280;59785;52.582;13.892;2022-12-15T01:32:39;99695.25;;;-10.81;92.79
15971;BME280;59785;52.582;13.892;2022-12-15T01:35:11;99701.50;;;-10.88;92.87
15971;BME280;59785;52.582;13.892;2022-12-15T01:37:37;99698.75;;;-10.84;92.75
15971;BME280;59785;52.582;13.892;2022-12-15T01:40:04;99695.03;;;-10.74;92.32
15971;BME280;59785;52.582;13.892;2022-12-15T01:42:50;99696.13;;;-10.82;91.69
15971;BME280;59785;52.582;13.892;2022-12-15T01:47:50;99700.69;;;-10.91;91.97
15971;BME280;59785;52.582;13.892;2022-12-15T01:50:18;99694.75;;;-10.94;91.90
15971;BME280;59785;52.582;13.892;2022-12-15T01:52:46;99694.09;;;-11.01;92.44
15971;BME280;59785;52.582;13.892;2022-12-15T01:55:15;99696.72;;;-11.02;92.96
15971;BME280;59785;52.582;13.892;2022-12-15T01:57:43;99687.16;;;-11.00;93.14
15971;BME280;59785;52.582;13.892;2022-12-15T02:00:11;99680.28;;;-11.01;93.23
15971;BME280;59785;52.582;13.892;2022-12-15T02:02:38;99683.59;;;-10.96;93.17
15971;BME280;59785;52.582;13.892;2022-12-15T02:05:06;99690.31;;;-10.89;92.59
15971;BME280;59785;52.582;13.892;2022-12-15T02:07:32;99697.34;;;-10.94;91.89
15971;BME280;59785;52.582;13.892;2022-12-15T02:10:00;99698.53;;;-11.06;91.74
15971;BME280;59785;52.582;13.892;2022-12-15T02:13:06;99688.25;;;-11.09;92.07
15971;BME280;59785;52.582;13.892;2022-12-15T02:15:48;99702.88;;;-11.06;91.68
15971;BME280;59785;52.582;13.892;2022-12-15T02:21:19;99715.00;;;-11.08;91.70
15971;BME280;59785;52.582;13.892;2022-12-15T02:24:18;99705.78;;;-11.19;91.82
15971;BME280;59785;52.582;13.892;2022-12-15T02:27:20;99713.75;;;-11.26;92.69
15971;BME280;59785;52.582;13.892;2022-12-15T02:30:17;99721.41;;;-11.22;92.99
15971;BME280;59785;52.582;13.892;2022-12-15T02:32:52;99717.88;;;-11.19;92.36
15971;BME280;59785;52.582;13.892;2022-12-15T02:35:42;99718.88;;;-11.25;92.42
15971;BME280;59785;52.582;13.892;2022-12-15T02:38:10;99725.06;;;-11.31;91.71
15971;BME280;59785;52.582;13.892;2022-12-15T02:40:38;99731.09;;;-11.30;91.98
15971;BME280;59785;52.582;13.892;2022-12-15T02:43:05;99731.91;;;-11.28;91.86
15971;BME280;59785;52.582;13.892;2022-12-15T02:45:44;99731.97;;;-11.31;91.91
15971;BME280;59785;52.582;13.892;2022-12-15T02:48:39;99731.25;;;-11.36;91.85
15971;BME280;59785;52.582;13.892;2022-12-15T02:51:54;99738.97;;;-11.35;92.04
15971;BME280;59785;52.582;13.892;2022-12-15T02:54:46;99745.03;;;-11.36;92.33
15971;BME280;59785;52.582;13.892;2022-12-15T02:57:30;99746.75;;;-11.36;92.19
15971;BME280;59785;52.582;13.892;2022-12-15T03:00:05;99750.28;;;-11.39;92.45
15971;BME280;59785;52.582;13.892;2022-12-15T03:02:33;99754.50;;;-11.36;92.07
15971;BME280;59785;52.582;13.892;2022-12-15T03:05:03;99755.47;;;-11.40;92.03
15971;BME280;59785;52.582;13.892;2022-12-15T03:07:30;99764.16;;;-11.41;92.18
15971;BME280;59785;52.582;13.892;2022-12-15T03:09:59;99767.66;;;-11.44;92.39
15971;BME280;59785;52.582;13.892;2022-12-15T03:12:25;99774.53;;;-11.43;92.28
15971;BME280;59785;52.582;13.892;2022-12-15T03:14:52;99784.81;;;-11.41;92.33
15971;BME280;59785;52.582;13.892;2022-12-15T03:17:18;99785.59;;;-11.38;92.78
15971;BME280;59785;52.582;13.892;2022-12-15T03:19:44;99799.84;;;-11.23;93.32
15971;BME280;59785;52.582;13.892;2022-12-15T03:22:14;99793.41;;;-11.06;93.50
15971;BME280;59785;52.582;13.892;2022-12-15T03:24:40;99799.03;;;-10.92;93.82
15971;BME280;59785;52.582;13.892;2022-12-15T03:27:06;99799.53;;;-10.78;94.50
15971;BME280;59785;52.582;13.892;2022-12-15T03:29:33;99796.56;;;-10.65;94.76
15971;BME280;59785;52.582;13.892;2022-12-15T03:31:59;99800.47;;;-10.50;94.81
15971;BME280;59785;52.582;13.892;2022-12-15T03:34:25;99799.72;;;-10.27;93.88
15971;BME280;59785;52.582;13.892;2022-12-15T03:36:51;99798.47;;;-10.14;93.39
15971;BME280;59785;52.582;13.892;2022-12-15T03:39:18;99795.66;;;-10.06;93.26
15971;BME280;59785;52.582;13.892;2022-12-15T03:41:44;99790.03;;;-9.93;93.45
15971;BME280;59785;52.582;13.892;2022-12-15T03:44:10;99788.66;;;-9.76;93.33
15971;BME280;59785;52.582;13.892;2022-12-15T03:46:36;99797.78;;;-9.64;93.78
15971;BME280;59785;52.582;13.892;2022-12-15T03:49:02;99799.97;;;-9.52;94.03
15971;BME280;59785;52.582;13.892;2022-12-15T03:51:29;99793.53;;;-9.40;94.26
15971;BME280;59785;52.582;13.892;2022-12-15T03:53:55;99792.44;;;-9.33;94.77
15971;BME280;59785;52.582;13.892;2022-12-15T03:56:21;99793.84;;;-9.24;95.36
15971;BME280;59785;52.582;13.892;2022-12-15T03:58:47;99787.41;;;-9.13;95.51
15971;BME280;59785;52.582;13.892;2022-12-15T04:03:46;99797.31;;;-8.99;96.40
15971;BME280;59785;52.582;13.892;2022-12-15T04:06:12;99802.16;;;-8.89;96.27
15971;BME280;59785;52.582;13.892;2022-12-15T04:08:38;99802.91;;;-8.86;96.52
15971;BME280;59785;52.582;13.892;2022-12-15T04:11:04;99808.00;;;-8.83;97.18
15971;BME280;59785;52.582;13.892;2022-12-15T04:13:30;99809.53;;;-8.77;97.69
15971;BME280;59785;52.582;13.892;2022-12-15T04:16:00;99812.84;;;-8.74;97.68
15971;BME280;59785;52.582;13.892;2022-12-15T04:18:27;99816.81;;;-8.63;97.70
15971;BME280;59785;52.582;13.892;2022-12-15T04:20:53;99814.09;;;-8.60;96.98
15971;BME280;59785;52.582;13.892;2022-12-15T04:23:20;99820.03;;;-8.57;96.89
15971;BME280;59785;52.582;13.892;2022-12-15T04:25:46;99824.38;;;-8.57;96.75
15971;BME280;59785;52.582;13.892;2022-12-15T04:28:31;99827.03;;;-8.59;96.05
15971;BME280;59785;52.582;13.892;2022-12-15T04:31:19;99831.63;;;-8.65;96.29
15971;BME280;59785;52.582;13.892;2022-12-15T04:34:10;99841.03;;;-8.63;95.39
15971;BME280;59785;52.582;13.892;2022-12-15T04:36:56;99847.19;;;-8.65;95.33
15971;BME280;59785;52.582;13.892;2022-12-15T04:39:44;99834.34;;;-8.70;95.44
15971;BME280;59785;52.582;13.892;2022-12-15T04:42:30;99844.00;;;-8.74;95.82
15971;BME280;59785;52.582;13.892;2022-12-15T04:45:18;99843.13;;;-8.73;96.61
15971;BME280;59785;52.582;13.892;2022-12-15T04:48:03;99849.00;;;-8.67;96.87
15971;BME280;59785;52.582;13.892;2022-12-15T04:50:48;99840.34;;;-8.68;96.61
15971;BME280;59785;52.582;13.892;2022-12-15T04:53:33;99850.91;;;-8.73;96.90
15971;BME280;59785;52.582;13.892;2022-12-15T04:56:17;99850.94;;;-8.74;96.26
